Time;durP1;ratioP1;P1;durP2;ratioP2;P2;SDS_P1;SDS_P2;PMS_P1;PMS_P2;Temp;Humidity;BMP_temperature;BMP_pressure;BME280_temperature;BME280_humidity;BME280_pressure;Samples;Min_cycle;Max_cycle;Signal;HPM_P1;HPM_P2
2021/04/18 00:02:04;;;;;;;3.07;1.30;;;;;;;7.33;100.00;101547.94;5053199;28;20438;-68
2021/04/18 00:04:30;;;;;;;0.60;0.60;;;;;;;7.27;100.00;101549.75;5053074;28;20442;-68
2021/04/18 00:06:56;;;;;;;0.83;0.70;;;;;;;7.24;100.00;101539.50;5053224;28;20514;-68
2021/04/18 00:09:23;;;;;;;1.07;0.63;;;;;;;7.19;100.00;101544.03;5052766;28;20993;-68
2021/04/18 00:11:49;;;;;;;2.27;0.87;;;;;;;7.12;100.00;101538.81;5053219;28;20457;-68
2021/04/18 00:14:15;;;;;;;2.13;0.83;;;;;;;7.05;99.80;101538.22;5053163;28;20529;-68
2021/04/18 00:16:41;;;;;;;2.20;0.80;;;;;;;6.98;99.22;101534.91;5053125;28;20437;-68
2021/04/18 00:19:08;;;;;;;2.17;2.00;;;;;;;6.90;98.56;101538.84;5052957;28;20486;-68
2021/04/18 00:21:34;;;;;;;1.03;0.90;;;;;;;6.85;97.73;101532.63;5053092;28;20449;-68
2021/04/18 00:24:01;;;;;;;0.60;0.50;;;;;;;6.75;97.75;101526.06;5053144;28;20442;-68
2021/04/18 00:26:28;;;;;;;0.47;0.30;;;;;;;6.70;98.00;101527.88;5053013;28;20446;-68
2021/04/18 00:28:54;;;;;;;1.57;0.93;;;;;;;6.66;98.16;101524.88;5053005;28;20511;-68
2021/04/18 00:31:20;;;;;;;2.00;1.70;;;;;;;6.46;100.00;101525.44;5052636;28;20441;-68
2021/04/18 00:33:46;;;;;;;1.20;1.10;;;;;;;6.44;100.00;101526.75;5052675;28;20450;-68
2021/04/18 00:36:12;;;;;;;1.70;0.60;;;;;;;6.46;100.00;101524.59;5052633;28;20499;-68
2021/04/18 00:38:38;;;;;;;1.03;1.03;;;;;;;6.42;100.00;101527.00;5052649;28;20524;-68
2021/04/18 00:41:05;;;;;;;1.53;0.77;;;;;;;6.49;100.00;101526.81;5052798;28;20936;-68
2021/04/18 00:43:32;;;;;;;1.17;1.17;;;;;;;6.50;100.00;101528.44;5054696;28;20446;-68
2021/04/18 00:45:58;;;;;;;1.37;0.77;;;;;;;6.43;100.00;101527.81;5057062;28;20442;-68
2021/04/18 00:48:23;;;;;;;1.10;0.90;;;;;;;6.35;100.00;101526.38;5060440;28;20458;-68
2021/04/18 00:50:49;;;;;;;2.53;0.70;;;;;;;6.25;100.00;101519.00;5056292;28;20503;-68
2021/04/18 00:53:15;;;;;;;3.27;1.10;;;;;;;6.23;100.00;101514.91;5056460;28;20449;-68
2021/04/18 00:55:44;;;;;;;1.43;1.33;;;;;;;6.20;100.00;101516.22;5056255;28;20476;-68
2021/04/18 00:58:12;;;;;;;0.97;0.97;;;;;;;6.27;100.00;101514.16;5056364;28;20917;-68
2021/04/18 01:00:39;;;;;;;1.80;1.50;;;;;;;6.27;100.00;101516.84;5056416;28;20446;-68
2021/04/18 01:03:07;;;;;;;2.57;1.27;;;;;;;6.19;100.00;101514.59;5056156;28;20809;-68
2021/04/18 01:05:33;;;;;;;0.70;0.60;;;;;;;6.23;100.00;101515.72;5056324;28;20540;-68
2021/04/18 01:08:00;;;;;;;0.50;0.47;;;;;;;6.18;100.00;101512.97;5056035;28;20472;-68
2021/04/18 01:10:26;;;;;;;0.70;0.50;;;;;;;6.23;98.95;101518.41;5056275;28;20500;-67
2021/04/18 01:12:52;;;;;;;0.70;0.60;;;;;;;6.17;98.04;101519.41;5056247;28;20450;-66
2021/04/18 01:15:19;;;;;;;0.53;0.53;;;;;;;5.92;98.95;101513.66;5056223;28;20445;-69
2021/04/18 01:17:46;;;;;;;0.73;0.70;;;;;;;5.94;98.27;101515.06;5055995;28;20813;-69
2021/04/18 01:20:15;;;;;;;0.50;0.50;;;;;;;5.82;98.52;101507.06;5056164;28;20446;-69
2021/04/18 01:22:42;;;;;;;0.50;0.40;;;;;;;5.80;98.30;101503.81;5055639;28;20438;-68
2021/04/18 01:25:10;;;;;;;0.60;0.60;;;;;;;5.81;97.88;101515.38;5056062;28;20442;-68
2021/04/18 01:27:38;;;;;;;0.97;0.93;;;;;;;5.73;97.67;101524.66;5056017;28;20461;-68
2021/04/18 01:30:06;;;;;;;3.57;2.00;;;;;;;5.72;98.13;101531.09;5055785;28;20480;-68
2021/04/18 01:32:32;;;;;;;0.80;0.80;;;;;;;5.66;98.92;101529.38;5055927;28;20442;-68
2021/04/18 01:34:58;;;;;;;0.97;0.80;;;;;;;5.66;99.79;101525.88;5056035;28;20526;-68
2021/04/18 01:37:24;;;;;;;0.47;0.37;;;;;;;5.70;100.00;101533.19;5055479;28;20965;-68
2021/04/18 01:39:51;;;;;;;6.57;2.67;;;;;;;5.67;100.00;101520.28;5055768;28;20482;-68
2021/04/18 01:42:19;;;;;;;2.60;1.50;;;;;;;5.77;100.00;101524.97;5055971;28;20450;-68
2021/04/18 01:44:45;;;;;;;2.40;1.13;;;;;;;5.79;100.00;101520.97;5055767;28;20437;-68
2021/04/18 01:47:11;;;;;;;3.47;1.10;;;;;;;5.87;100.00;101524.31;5055329;28;20533;-68
2021/04/18 01:49:36;;;;;;;3.70;1.13;;;;;;;5.97;100.00;101532.56;5055657;28;20461;-68
2021/04/18 01:52:03;;;;;;;0.80;0.80;;;;;;;6.09;100.00;101529.78;5055612;28;21000;-68
2021/04/18 01:54:29;;;;;;;1.27;0.87;;;;;;;6.15;100.00;101532.28;5054631;28;20442;-68
2021/04/18 01:56:55;;;;;;;1.57;1.47;;;;;;;6.18;100.00;101531.78;5055584;28;20887;-68
2021/04/18 01:59:21;;;;;;;0.70;0.50;;;;;;;6.29;100.00;101538.94;5055337;28;20486;-68
2021/04/18 02:01:47;;;;;;;0.70;0.70;;;;;;;6.36;100.00;101533.38;5055417;28;20466;-68
2021/04/18 02:04:19;;;;;;;1.20;1.03;;;;;;;6.38;100.00;101535.84;5055250;28;20787;-68
2021/04/18 02:06:45;;;;;;;2.53;1.47;;;;;;;6.42;100.00;101531.56;5055178;28;20503;-68
2021/04/18 02:09:11;;;;;;;1.60;1.27;;;;;;;6.43;100.00;101528.63;5056285;28;20949;-68
2021/04/18 02:11:37;;;;;;;0.40;0.40;;;;;;;6.52;99.38;101523.63;5054931;28;20449;-69
2021/04/18 02:14:04;;;;;;;0.63;0.50;;;;;;;6.55;99.24;101518.56;5055196;28;20500;-69
2021/04/18 02:16:30;;;;;;;2.60;2.47;;;;;;;6.60;99.76;101527.75;5055091;28;20439;-69
2021/04/18 02:18:56;;;;;;;0.40;0.30;;;;;;;6.58;99.75;101519.91;5054711;28;20512;-68
2021/04/18 02:21:22;;;;;;;1.93;1.33;;;;;;;6.61;100.00;101518.63;5055092;28;20532;-68
2021/04/18 02:23:48;;;;;;;2.20;0.87;;;;;;;6.63;100.00;101532.63;5055081;28;20470;-68
2021/04/18 02:26:14;;;;;;;0.57;0.50;;;;;;;6.68;99.70;101525.41;5055050;28;20442;-68
2021/04/18 02:28:40;;;;;;;0.57;0.53;;;;;;;6.73;99.63;101521.97;5055080;28;20477;-69
2021/04/18 02:31:07;;;;;;;1.87;0.50;;;;;;;6.74;100.00;101524.44;5057280;28;20442;-69
2021/04/18 02:33:33;;;;;;;1.47;1.37;;;;;;;6.82;100.00;101526.69;5057271;28;20485;-68
2021/04/18 02:35:59;;;;;;;1.37;0.97;;;;;;;6.92;100.00;101512.50;5056930;28;20470;-67
2021/04/18 02:38:25;;;;;;;1.97;0.80;;;;;;;6.98;100.00;101514.16;5054751;28;20486;-67
2021/04/18 02:40:50;;;;;;;1.27;0.47;;;;;;;7.00;100.00;101511.25;5054916;28;20465;-68
2021/04/18 02:43:16;;;;;;;1.67;0.70;;;;;;;7.02;100.00;101514.47;5054327;28;20508;-67
2021/04/18 02:45:42;;;;;;;0.60;0.60;;;;;;;7.05;100.00;101519.38;5054322;28;20449;-68
2021/04/18 02:48:09;;;;;;;0.50;0.40;;;;;;;7.08;100.00;101519.69;5054211;28;20462;-67
2021/04/18 02:50:35;;;;;;;1.37;1.03;;;;;;;7.13;100.00;101524.31;5054204;28;20908;-68
2021/04/18 02:53:01;;;;;;;0.97;0.73;;;;;;;7.10;100.00;101522.13;5054094;28;20457;-67
2021/04/18 02:55:27;;;;;;;0.50;0.47;;;;;;;7.14;100.00;101522.41;5054401;28;20434;-68
2021/04/18 02:57:53;;;;;;;1.73;1.60;;;;;;;7.18;100.00;101529.75;5054247;28;20470;-67
2021/04/18 03:00:20;;;;;;;2.37;1.83;;;;;;;7.22;100.00;101530.84;5054379;28;20905;-68
2021/04/18 03:02:46;;;;;;;3.40;0.93;;;;;;;7.26;99.79;101531.97;5054318;28;20438;-67
2021/04/18 03:05:13;;;;;;;0.93;0.80;;;;;;;7.26;98.99;101537.38;5054249;28;20449;-67
2021/04/18 03:07:39;;;;;;;3.43;0.97;;;;;;;7.25;98.09;101530.31;5053611;28;20990;-67
2021/04/18 03:10:06;;;;;;;1.63;1.53;;;;;;;7.23;98.26;101532.47;5054247;28;20485;-67
2021/04/18 03:12:32;;;;;;;1.93;1.50;;;;;;;7.22;97.74;101528.16;5054062;28;20441;-68
2021/04/18 03:14:58;;;;;;;4.63;2.30;;;;;;;7.22;97.28;101533.56;5054110;28;20818;-67
2021/04/18 03:17:24;;;;;;;2.43;1.23;;;;;;;7.22;97.56;101528.16;5053929;28;20939;-68
2021/04/18 03:19:50;;;;;;;0.77;0.77;;;;;;;7.12;97.58;101525.34;5054010;28;21010;-67
2021/04/18 03:22:17;;;;;;;3.90;2.63;;;;;;;7.07;97.85;101522.59;5053829;28;20442;-67
2021/04/18 03:24:43;;;;;;;3.90;3.37;;;;;;;7.14;98.02;101528.63;5053820;28;20453;-67
2021/04/18 03:27:09;;;;;;;1.40;1.30;;;;;;;7.16;98.89;101521.09;5053745;28;20511;-68
2021/04/18 03:29:35;;;;;;;0.50;0.40;;;;;;;7.25;99.37;101518.75;5053738;28;20470;-67
2021/04/18 03:32:01;;;;;;;3.60;2.20;;;;;;;7.30;99.65;101519.63;5053616;28;20822;-67
2021/04/18 03:34:27;;;;;;;2.47;1.90;;;;;;;7.22;100.00;101522.78;5053574;28;20525;-68
2021/04/18 03:36:53;;;;;;;1.40;1.30;;;;;;;7.25;100.00;101522.25;5053554;28;20453;-67
2021/04/18 03:39:20;;;;;;;4.67;1.57;;;;;;;7.27;100.00;101512.03;5053366;28;20501;-68
2021/04/18 03:41:46;;;;;;;5.10;2.33;;;;;;;7.36;100.00;101511.56;5053485;28;20445;-66
2021/04/18 03:44:12;;;;;;;1.23;1.13;;;;;;;7.32;100.00;101509.38;5053507;28;20442;-67
2021/04/18 03:46:38;;;;;;;3.03;2.73;;;;;;;7.29;100.00;101509.88;5053232;28;20446;-67
2021/04/18 03:49:04;;;;;;;0.97;0.87;;;;;;;7.15;100.00;101497.91;5053287;28;20514;-67
2021/04/18 03:51:30;;;;;;;2.67;2.33;;;;;;;7.14;100.00;101490.09;5054239;28;20450;-67
2021/04/18 03:53:56;;;;;;;4.43;1.90;;;;;;;7.14;100.00;101499.00;5053374;28;20438;-67
2021/04/18 03:56:23;;;;;;;1.37;1.20;;;;;;;7.12;100.00;101509.19;5053433;28;20492;-68
2021/04/18 03:58:49;;;;;;;2.67;2.47;;;;;;;7.12;100.00;101508.38;5053299;28;20490;-67
2021/04/18 04:01:15;;;;;;;0.90;0.90;;;;;;;7.08;99.65;101516.16;5053065;28;20468;-67
2021/04/18 04:03:41;;;;;;;1.40;0.87;;;;;;;6.91;100.00;101518.16;5053251;28;20458;-67
2021/04/18 04:06:07;;;;;;;1.80;1.40;;;;;;;6.90;100.00;101521.91;5052930;28;20449;-67
2021/04/18 04:08:33;;;;;;;6.40;2.23;;;;;;;6.92;100.00;101525.16;5052858;28;20473;-69
2021/04/18 04:10:59;;;;;;;2.27;2.07;;;;;;;6.87;100.00;101522.41;5053842;28;20450;-68
2021/04/18 04:13:26;;;;;;;5.50;2.60;;;;;;;6.81;100.00;101529.59;5053162;28;20484;-69
2021/04/18 04:15:52;;;;;;;3.50;3.13;;;;;;;6.79;100.00;101516.41;5054478;28;20451;-70
2021/04/18 04:18:18;;;;;;;5.03;2.33;;;;;;;6.80;100.00;101522.59;5053709;28;20489;-67
2021/04/18 04:20:44;;;;;;;7.67;2.80;;;;;;;6.85;100.00;101516.44;5053068;28;20453;-68
2021/04/18 04:23:10;;;;;;;1.60;1.10;;;;;;;6.81;100.00;101525.03;5052795;28;20484;-66
2021/04/18 04:25:36;;;;;;;9.73;4.10;;;;;;;6.85;100.00;101524.53;5053020;28;20435;-68
2021/04/18 04:28:03;;;;;;;4.87;2.20;;;;;;;6.88;100.00;101518.66;5052581;28;20495;-67
2021/04/18 04:30:29;;;;;;;2.63;2.47;;;;;;;6.91;100.00;101518.16;5052899;28;20438;-68
2021/04/18 04:32:55;;;;;;;2.90;1.50;;;;;;;6.98;100.00;101516.88;5053002;28;20441;-68
2021/04/18 04:35:22;;;;;;;2.77;2.33;;;;;;;6.98;100.00;101518.75;5052980;28;20442;-68
2021/04/18 04:37:47;;;;;;;5.60;3.70;;;;;;;7.01;100.00;101520.94;5052853;28;20462;-68
2021/04/18 04:40:14;;;;;;;2.37;2.17;;;;;;;7.05;100.00;101522.06;5052984;28;20950;-67
2021/04/18 04:42:40;;;;;;;5.47;2.97;;;;;;;7.04;100.00;101523.16;5052875;28;20453;-68
2021/04/18 04:45:07;;;;;;;5.40;3.60;;;;;;;7.09;100.00;101520.50;5052919;28;20940;-67
2021/04/18 04:47:34;;;;;;;4.63;1.73;;;;;;;7.06;100.00;101513.72;5052512;28;20461;-67
2021/04/18 04:50:00;;;;;;;4.23;3.30;;;;;;;7.10;100.00;101511.34;5052945;28;20796;-67
2021/04/18 04:52:26;;;;;;;2.27;2.10;;;;;;;7.17;100.00;101517.34;5052794;28;20493;-67
2021/04/18 04:54:53;;;;;;;2.50;2.30;;;;;;;7.05;100.00;101520.19;5052543;28;20966;-66
2021/04/18 04:57:19;;;;;;;2.17;1.60;;;;;;;7.00;100.00;101520.13;5052712;28;20441;-67
2021/04/18 04:59:45;;;;;;;3.10;2.33;;;;;;;6.94;100.00;101513.06;5052692;28;20488;-67
2021/04/18 05:02:11;;;;;;;4.97;2.37;;;;;;;7.01;100.00;101515.56;5052702;28;20445;-67
2021/04/18 05:04:38;;;;;;;3.80;2.97;;;;;;;6.97;100.00;101525.22;5052638;28;20454;-70
2021/04/18 05:07:04;;;;;;;1.83;1.67;;;;;;;6.96;100.00;101532.47;5052668;28;20458;-69
2021/04/18 05:09:30;;;;;;;1.60;1.50;;;;;;;7.01;100.00;101532.53;5052149;28;21014;-68
2021/04/18 05:11:56;;;;;;;3.20;2.90;;;;;;;7.01;100.00;101543.31;5052342;28;20935;-69
2021/04/18 05:14:22;;;;;;;3.60;1.70;;;;;;;6.99;100.00;101539.22;5052311;28;20446;-69
2021/04/18 05:16:48;;;;;;;1.50;1.40;;;;;;;6.91;100.00;101545.09;5052589;28;20443;-69
2021/04/18 05:19:14;;;;;;;2.40;1.77;;;;;;;6.93;100.00;101549.13;5052457;28;20494;-69
2021/04/18 05:21:40;;;;;;;3.37;1.90;;;;;;;6.93;100.00;101545.63;5052556;28;20947;-69
2021/04/18 05:24:07;;;;;;;0.53;0.53;;;;;;;6.90;100.00;101532.66;5052539;28;20500;-69
2021/04/18 05:26:33;;;;;;;1.33;1.23;;;;;;;6.99;100.00;101547.31;5052492;28;20442;-70
2021/04/18 05:28:59;;;;;;;0.80;0.60;;;;;;;7.01;100.00;101553.25;5052532;28;20458;-69
2021/04/18 05:31:25;;;;;;;2.80;2.43;;;;;;;6.99;100.00;101556.19;5055522;28;20823;-69
2021/04/18 05:33:51;;;;;;;2.50;2.00;;;;;;;7.00;100.00;101552.47;5055677;28;20473;-70
2021/04/18 05:36:17;;;;;;;2.63;2.50;;;;;;;6.96;100.00;101553.22;5055935;28;20512;-69
2021/04/18 05:38:44;;;;;;;3.00;1.00;;;;;;;7.02;100.00;101553.00;5055566;28;20998;-69
2021/04/18 05:41:10;;;;;;;3.43;3.13;;;;;;;6.85;100.00;101540.69;5055993;28;20442;-70
2021/04/18 05:43:36;;;;;;;2.00;1.87;;;;;;;6.81;100.00;101551.97;5055851;28;20446;-70
2021/04/18 05:46:02;;;;;;;6.30;2.57;;;;;;;6.86;100.00;101547.69;5055954;28;20532;-69
2021/04/18 05:48:28;;;;;;;1.93;1.67;;;;;;;6.92;100.00;101544.00;5055673;28;20485;-70
2021/04/18 05:50:54;;;;;;;4.97;3.03;;;;;;;6.99;100.00;101555.38;5055692;28;20923;-69
2021/04/18 05:53:20;;;;;;;6.03;3.43;;;;;;;6.99;100.00;101550.00;5055757;28;21066;-70
2021/04/18 05:55:46;;;;;;;4.67;3.40;;;;;;;6.77;100.00;101550.03;5055658;28;20449;-69
2021/04/18 05:58:13;;;;;;;3.63;1.80;;;;;;;6.69;100.00;101535.16;5055260;28;21067;-69
2021/04/18 06:00:39;;;;;;;7.00;2.20;;;;;;;6.74;100.00;101529.81;5064204;28;20504;-70
2021/04/18 06:03:05;;;;;;;4.20;2.27;;;;;;;6.85;100.00;101538.00;5058573;28;20948;-70
2021/04/18 06:05:31;;;;;;;1.73;1.63;;;;;;;6.80;100.00;101538.75;5055367;28;20445;-70
2021/04/18 06:07:57;;;;;;;3.83;2.57;;;;;;;6.73;100.00;101546.19;5054934;28;21133;-69
2021/04/18 06:10:24;;;;;;;4.53;2.53;;;;;;;6.60;100.00;101550.13;5055320;28;20449;-70
2021/04/18 06:12:50;;;;;;;4.60;3.40;;;;;;;6.61;100.00;101551.72;5055332;28;20446;-67
2021/04/18 06:15:17;;;;;;;3.13;1.03;;;;;;;6.66;100.00;101545.59;5055491;28;20472;-67
2021/04/18 06:17:44;;;;;;;0.87;0.60;;;;;;;6.47;100.00;101556.69;5055148;28;20841;-71
2021/04/18 06:20:11;;;;;;;4.50;3.63;;;;;;;6.66;100.00;101564.44;5055109;28;20857;-69
2021/04/18 06:22:38;;;;;;;3.97;2.80;;;;;;;6.72;100.00;101552.66;5055152;28;20799;-68
2021/04/18 06:25:04;;;;;;;7.53;4.43;;;;;;;6.86;100.00;101551.19;5055138;28;20445;-67
2021/04/18 06:27:31;;;;;;;1.03;0.90;;;;;;;6.99;100.00;101552.69;5054976;28;20830;-67
2021/04/18 06:29:58;;;;;;;2.87;2.43;;;;;;;6.93;100.00;101548.31;5054958;28;20584;-68
2021/04/18 06:32:24;;;;;;;6.40;1.70;;;;;;;6.86;100.00;101547.69;5054635;28;20990;-68
2021/04/18 06:34:50;;;;;;;5.63;3.93;;;;;;;6.92;100.00;101546.72;5054886;28;20446;-68
2021/04/18 06:37:16;;;;;;;1.70;1.50;;;;;;;6.98;100.00;101551.06;5054576;28;20442;-68
2021/04/18 06:39:42;;;;;;;1.67;1.57;;;;;;;7.03;100.00;101560.00;5054425;28;20577;-68
2021/04/18 06:42:14;;;;;;;2.60;2.00;;;;;;;7.11;100.00;101556.06;5054324;28;20438;-69
2021/04/18 06:44:40;;;;;;;3.70;1.83;;;;;;;7.05;100.00;101565.16;5054731;28;20434;-69
2021/04/18 06:47:09;;;;;;;2.83;1.57;;;;;;;6.89;100.00;101563.38;5054426;28;20894;-68
2021/04/18 06:49:35;;;;;;;2.43;2.17;;;;;;;6.86;100.00;101563.84;5054596;28;20442;-69
2021/04/18 06:52:02;;;;;;;2.83;2.63;;;;;;;6.95;100.00;101568.56;5054267;28;20972;-69
2021/04/18 06:54:28;;;;;;;3.30;2.80;;;;;;;7.02;100.00;101573.75;5054174;28;20944;-69
2021/04/18 06:56:54;;;;;;;0.50;0.40;;;;;;;7.02;100.00;101573.75;5054185;28;21012;-68
2021/04/18 06:59:20;;;;;;;2.40;2.20;;;;;;;7.07;100.00;101573.78;5054323;28;20521;-70
2021/04/18 07:01:46;;;;;;;1.43;1.33;;;;;;;7.08;100.00;101580.81;5054373;28;20450;-70
2021/04/18 07:04:14;;;;;;;3.87;2.10;;;;;;;6.97;100.00;101576.38;5054334;28;20446;-69
2021/04/18 07:06:43;;;;;;;4.10;2.80;;;;;;;6.82;100.00;101579.72;5054406;28;20438;-69
2021/04/18 07:09:10;;;;;;;14.13;2.60;;;;;;;6.87;100.00;101577.09;5053935;28;20473;-70
2021/04/18 07:11:49;;;;;;;3.17;2.00;;;;;;;6.89;100.00;101571.44;5054240;28;20433;-68
2021/04/18 07:14:20;;;;;;;3.80;2.53;;;;;;;6.90;100.00;101570.38;5053892;28;20912;-70
2021/04/18 07:16:46;;;;;;;3.50;1.70;;;;;;;6.80;100.00;101561.09;5054117;28;20442;-70
2021/04/18 07:19:24;;;;;;;6.33;2.47;;;;;;;6.63;100.00;101563.06;5053894;28;20558;-69
2021/04/18 07:21:51;;;;;;;2.63;2.43;;;;;;;6.74;100.00;101561.31;5054079;28;20783;-70
2021/04/18 07:24:18;;;;;;;1.50;1.40;;;;;;;6.93;100.00;101564.50;5053927;28;20446;-70
2021/04/18 07:26:53;;;;;;;2.40;1.90;;;;;;;7.04;100.00;101572.44;5053831;28;20454;-70
2021/04/18 07:29:20;;;;;;;14.13;2.50;;;;;;;7.00;100.00;101570.50;5053548;28;20969;-70
2021/04/18 07:31:47;;;;;;;5.80;3.63;;;;;;;7.01;100.00;101575.63;5053832;28;20588;-70
2021/04/18 07:34:14;;;;;;;1.40;1.30;;;;;;;7.00;100.00;101570.50;5053746;28;20446;-70
2021/04/18 07:36:43;;;;;;;2.00;1.60;;;;;;;6.87;100.00;101560.94;5053730;28;20528;-70
2021/04/18 07:39:12;;;;;;;3.67;3.30;;;;;;;6.89;100.00;101555.28;5053593;28;20544;-70
2021/04/18 07:41:40;;;;;;;8.10;2.40;;;;;;;6.82;100.00;101572.47;5053635;28;20450;-70
2021/04/18 07:44:08;;;;;;;2.23;1.70;;;;;;;6.87;100.00;101560.94;5054315;28;20472;-69
2021/04/18 07:46:35;;;;;;;4.87;2.23;;;;;;;6.94;100.00;101549.94;5057931;28;20536;-70
2021/04/18 07:49:01;;;;;;;2.17;1.83;;;;;;;6.96;100.00;101553.22;5053622;28;20516;-69
2021/04/18 07:51:28;;;;;;;8.67;2.83;;;;;;;6.96;100.00;101554.03;5053313;28;20445;-70
2021/04/18 07:53:55;;;;;;;8.23;4.87;;;;;;;6.93;100.00;101553.72;5052578;28;20453;-69
2021/04/18 07:56:21;;;;;;;2.43;1.93;;;;;;;6.85;100.00;101546.06;5053327;28;20814;-68
2021/04/18 07:58:46;;;;;;;3.77;2.43;;;;;;;6.92;100.00;101549.41;5052897;28;20485;-69
2021/04/18 08:01:13;;;;;;;5.67;2.50;;;;;;;6.99;100.00;101553.50;5053234;28;20480;-68
2021/04/18 08:03:42;;;;;;;6.57;1.93;;;;;;;6.96;100.00;101556.72;5053107;28;20446;-69
2021/04/18 08:06:08;;;;;;;2.10;1.33;;;;;;;7.02;100.00;101546.81;5053289;28;20442;-69
2021/04/18 08:08:46;;;;;;;7.97;3.77;;;;;;;7.08;100.00;101545.78;5078052;22;20497;-66
2021/04/18 08:11:15;;;;;;;2.80;1.83;;;;;;;7.12;100.00;101549.59;5052811;28;20453;-66
2021/04/18 08:13:43;;;;;;;4.80;2.50;;;;;;;7.01;100.00;101561.34;5053205;28;20445;-67
2021/04/18 08:16:10;;;;;;;8.70;3.83;;;;;;;6.95;100.00;101559.66;5053158;28;20449;-66
2021/04/18 08:18:39;;;;;;;4.17;2.17;;;;;;;7.03;100.00;101562.69;5052977;28;20490;-66
2021/04/18 08:21:28;;;;;;;5.70;2.67;;;;;;;7.02;100.00;101562.97;5053171;28;20489;-67
2021/04/18 08:23:55;;;;;;;6.43;3.07;;;;;;;6.72;100.00;101566.94;5053130;28;20438;-67
2021/04/18 08:26:22;;;;;;;9.30;2.90;;;;;;;6.77;100.00;101561.63;5053097;28;20445;-67
2021/04/18 08:29:12;;;;;;;3.40;2.33;;;;;;;6.78;100.00;101568.63;5053042;28;20458;-67
2021/04/18 08:32:06;;;;;;;3.23;2.17;;;;;;;6.88;100.00;101580.59;5053532;28;20912;-66
2021/04/18 08:34:34;;;;;;;2.23;1.40;;;;;;;6.87;100.00;101579.78;5053167;28;20432;-67
2021/04/18 08:37:02;;;;;;;3.43;3.03;;;;;;;6.87;100.00;101578.97;5052965;28;20446;-67
2021/04/18 08:39:31;;;;;;;2.50;1.90;;;;;;;6.83;100.00;101574.06;5052770;28;20513;-67
2021/04/18 08:42:00;;;;;;;4.57;1.93;;;;;;;6.89;100.00;101563.38;5053003;28;20442;-67
2021/04/18 08:44:28;;;;;;;1.00;1.00;;;;;;;6.70;100.00;101569.06;5052983;28;20451;-67
2021/04/18 08:46:56;;;;;;;5.80;3.13;;;;;;;6.65;100.00;101560.94;5053175;28;20442;-67
2021/04/18 08:49:30;;;;;;;0.93;0.90;;;;;;;6.78;100.00;101552.47;5052957;28;20466;-67
2021/04/18 08:51:58;;;;;;;3.77;2.57;;;;;;;6.92;100.00;101546.72;5052744;28;20507;-66
2021/04/18 08:54:25;;;;;;;3.33;2.17;;;;;;;6.80;100.00;101544.94;5052859;28;20480;-66
2021/04/18 08:56:53;;;;;;;1.93;0.90;;;;;;;6.93;100.00;101551.03;5052855;28;20438;-66
2021/04/18 08:59:21;;;;;;;4.33;1.90;;;;;;;7.22;100.00;101555.09;5052582;28;20858;-66
2021/04/18 09:01:54;;;;;;;1.00;1.00;;;;;;;7.42;100.00;101562.56;5052845;28;20434;-66
2021/04/18 09:04:21;;;;;;;3.47;1.80;;;;;;;7.22;100.00;101552.41;5054327;28;20448;-66
2021/04/18 09:06:48;;;;;;;2.80;1.10;;;;;;;7.24;100.00;101554.84;5056745;28;20442;-66
2021/04/18 09:09:15;;;;;;;5.33;3.37;;;;;;;7.50;100.00;101545.94;5056253;28;20478;-66
2021/04/18 09:11:44;;;;;;;2.80;2.40;;;;;;;7.54;100.00;101549.75;5056596;28;20532;-66
2021/04/18 09:14:10;;;;;;;2.90;2.50;;;;;;;7.54;100.00;101548.94;5056521;28;20434;-66
2021/04/18 09:16:39;;;;;;;3.93;3.27;;;;;;;7.48;100.00;101550.78;5056390;28;20449;-65
2021/04/18 09:19:26;;;;;;;4.10;2.70;;;;;;;7.43;100.00;101552.59;5056312;28;20482;-66
2021/04/18 09:22:00;;;;;;;3.77;1.93;;;;;;;7.41;100.00;101541.25;5056609;28;20436;-66
2021/04/18 09:24:28;;;;;;;2.23;2.00;;;;;;;7.40;100.00;101547.72;5056051;28;20442;-66
2021/04/18 09:26:55;;;;;;;2.60;2.00;;;;;;;7.25;100.00;101535.72;5056008;28;20965;-67
2021/04/18 09:29:23;;;;;;;9.40;2.00;;;;;;;7.17;100.00;101536.22;5056132;28;20454;-67
2021/04/18 09:31:55;;;;;;;5.27;3.90;;;;;;;7.22;100.00;101528.16;5055830;28;21016;-67
2021/04/18 09:34:21;;;;;;;3.53;2.03;;;;;;;7.08;100.00;101540.41;5056029;28;20565;-67
2021/04/18 09:36:49;;;;;;;3.07;1.90;;;;;;;7.13;100.00;101536.94;5056047;28;20446;-66
2021/04/18 09:39:15;;;;;;;2.17;1.87;;;;;;;7.11;100.00;101537.19;5055119;28;20865;-67
2021/04/18 09:41:42;;;;;;;1.73;1.50;;;;;;;7.04;100.00;101539.31;5056095;28;20446;-67
2021/04/18 09:44:08;;;;;;;1.63;1.07;;;;;;;7.10;100.00;101540.97;5055958;28;20818;-66
2021/04/18 09:46:41;;;;;;;3.37;2.10;;;;;;;7.25;100.00;101540.28;5056023;28;21005;-69
2021/04/18 09:49:08;;;;;;;1.70;1.13;;;;;;;7.30;100.00;101546.56;5055588;28;20967;-69
2021/04/18 09:51:53;;;;;;;2.23;1.50;;;;;;;7.07;100.00;101522.59;5055694;28;20446;-67
2021/04/18 09:54:35;;;;;;;2.00;1.60;;;;;;;7.08;100.00;101502.69;5055837;28;20453;-67
2021/04/18 09:57:12;;;;;;;3.17;1.97;;;;;;;7.15;100.00;101499.78;5055617;28;20433;-66
2021/04/18 09:59:38;;;;;;;3.77;1.70;;;;;;;7.14;100.00;101488.22;5055448;28;20497;-67
2021/04/18 10:02:09;;;;;;;2.60;2.37;;;;;;;7.19;100.00;101492.84;5055534;28;20486;-66
2021/04/18 10:04:36;;;;;;;2.70;1.83;;;;;;;7.33;100.00;101505.63;5055581;28;20464;-67
2021/04/18 10:07:02;;;;;;;2.83;1.60;;;;;;;7.59;100.00;101511.22;5055276;28;20954;-67
2021/04/18 10:09:49;;;;;;;1.43;1.33;;;;;;;7.88;100.00;101500.91;5054983;28;20466;-67
2021/04/18 10:12:15;;;;;;;4.20;3.20;;;;;;;8.13;100.00;101515.63;5055838;28;20423;-67
2021/04/18 10:14:42;;;;;;;4.57;2.30;;;;;;;8.21;100.00;101517.81;5055363;28;20474;-67
2021/04/18 10:17:08;;;;;;;6.43;2.80;;;;;;;8.37;100.00;101516.03;5054457;28;20449;-67
2021/04/18 10:19:48;;;;;;;4.70;3.37;;;;;;;8.42;100.00;101513.38;5055145;28;20548;-67
2021/04/18 10:22:14;;;;;;;4.63;2.47;;;;;;;8.39;100.00;101506.59;5055283;28;20441;-66
2021/04/18 10:24:43;;;;;;;1.90;1.70;;;;;;;8.56;100.00;101509.91;5055230;28;20530;-68
2021/04/18 10:27:11;;;;;;;2.80;2.10;;;;;;;8.51;100.00;101507.19;5055279;28;20470;-67
2021/04/18 10:29:38;;;;;;;6.03;3.90;;;;;;;8.55;100.00;101510.19;5054755;28;21054;-68
2021/04/18 10:32:06;;;;;;;2.00;1.67;;;;;;;8.69;100.00;101507.81;5055115;28;20438;-68
2021/04/18 10:34:32;;;;;;;2.40;2.10;;;;;;;8.97;100.00;101511.91;5054648;28;21019;-68
2021/04/18 10:36:59;;;;;;;5.47;2.77;;;;;;;9.19;100.00;101515.19;5054888;28;20453;-67
2021/04/18 10:39:25;;;;;;;7.27;2.80;;;;;;;9.35;100.00;101506.03;5054782;28;20493;-65
2021/04/18 10:41:52;;;;;;;7.40;3.57;;;;;;;9.65;100.00;101507.13;5054555;28;20499;-65
2021/04/18 10:44:18;;;;;;;6.10;5.27;;;;;;;9.65;100.00;101503.56;5054799;28;20438;-65
2021/04/18 10:46:45;;;;;;;3.87;3.53;;;;;;;9.41;100.00;101503.31;5054438;28;20452;-65
2021/04/18 10:49:11;;;;;;;11.20;2.43;;;;;;;9.65;100.00;101503.56;5054617;28;20552;-65
2021/04/18 10:51:37;;;;;;;4.40;2.40;;;;;;;9.72;100.00;101502.22;5054645;28;20449;-65
2021/04/18 10:54:05;;;;;;;2.07;1.97;;;;;;;9.83;100.00;101493.00;5054470;28;20442;-64
2021/04/18 10:56:31;;;;;;;6.03;4.23;;;;;;;9.79;100.00;101500.06;5054472;28;20828;-65
2021/04/18 10:58:57;;;;;;;7.10;4.23;;;;;;;10.13;100.00;101496.72;5053923;28;20864;-65
2021/04/18 11:01:23;;;;;;;4.63;4.03;;;;;;;10.32;100.00;101500.50;5054453;28;20442;-64
2021/04/18 11:03:49;;;;;;;1.80;1.67;;;;;;;10.69;100.00;101504.66;5054032;28;20484;-65
2021/04/18 11:06:15;;;;;;;6.07;4.73;;;;;;;10.58;99.90;101498.50;5054365;28;20446;-66
2021/04/18 11:08:41;;;;;;;8.03;4.77;;;;;;;10.94;100.00;101492.88;5053890;28;20488;-65
2021/04/18 11:11:08;;;;;;;4.50;2.60;;;;;;;11.41;100.00;101496.03;5054201;28;20515;-64
2021/04/18 11:13:34;;;;;;;6.67;3.70;;;;;;;11.92;98.04;101501.03;5054236;28;20465;-64
2021/04/18 11:16:00;;;;;;;5.57;4.77;;;;;;;11.80;94.15;101506.81;5053921;28;20953;-64
2021/04/18 11:18:26;;;;;;;5.63;3.60;;;;;;;12.04;95.09;101515.84;5054082;28;20465;-65
2021/04/18 11:20:51;;;;;;;5.50;3.63;;;;;;;12.00;94.05;101528.38;5053636;28;20482;-64
2021/04/18 11:23:17;;;;;;;6.30;3.10;;;;;;;12.04;94.37;101518.56;5054050;28;20452;-63
2021/04/18 11:25:43;;;;;;;5.23;2.10;;;;;;;12.31;93.65;101518.00;5053534;28;20515;-64
2021/04/18 11:28:10;;;;;;;3.40;2.50;;;;;;;12.34;93.16;101520.09;5054081;28;20469;-64